createdAt,value
2023-03-05T00:03:02.056Z,58.26
2023-03-05T00:08:04.884Z,58.55
2023-03-05T00:13:08.014Z,58.54
2023-03-05T00:18:10.586Z,58.67
2023-03-05T00:23:13.647Z,58.79
2023-03-05T00:28:16.739Z,58.96
2023-03-05T00:33:19.318Z,59.04
2023-03-05T00:38:21.958Z,59.15
2023-03-05T00:43:24.505Z,59.24
2023-03-05T00:48:27.275Z,59.19
2023-03-05T00:53:30.275Z,59.29
2023-03-05T00:58:33.208Z,59.49
2023-03-05T01:03:36.541Z,59.76
2023-03-05T01:08:39.404Z,60.14
2023-03-05T01:13:41.956Z,60.37
2023-03-05T01:18:44.450Z,60.74
2023-03-05T01:23:46.990Z,60.88
2023-03-05T01:28:49.540Z,60.72
2023-03-05T01:33:53.518Z,60.97
2023-03-05T01:38:56.112Z,61.30
2023-03-05T01:43:58.675Z,61.75
2023-03-05T01:49:22.345Z,61.69
2023-03-05T01:54:31.478Z,62.09
2023-03-05T01:59:34.450Z,62.24
2023-03-05T02:04:48.282Z,62.53
2023-03-05T02:09:50.983Z,62.93
2023-03-05T02:14:59.090Z,63.43
2023-03-05T02:20:20.141Z,63.67
2023-03-05T02:25:23.965Z,63.74
2023-03-05T02:30:26.529Z,63.77
2023-03-05T02:35:29.122Z,63.77
2023-03-05T02:40:31.900Z,63.99
2023-03-05T02:45:35.049Z,64.44
2023-03-05T02:50:39.616Z,64.72
2023-03-05T02:55:42.438Z,65.16
2023-03-05T03:00:46.636Z,65.26
2023-03-05T03:05:49.302Z,65.38
2023-03-05T03:10:51.939Z,65.70
2023-03-05T03:16:12.104Z,65.88
2023-03-05T03:21:23.816Z,66.16
2023-03-05T03:26:26.721Z,66.53
2023-03-05T03:31:29.317Z,66.72
2023-03-05T03:36:32.315Z,66.66
2023-03-05T03:41:34.954Z,66.50
2023-03-05T03:46:39.342Z,66.82
2023-03-05T03:51:42.050Z,66.85
2023-03-05T03:56:45.254Z,66.93
2023-03-05T04:01:48.124Z,66.98
2023-03-05T04:06:50.699Z,67.32
2023-03-05T04:11:53.238Z,67.49
2023-03-05T04:16:55.906Z,67.95
2023-03-05T04:21:59.038Z,68.61
2023-03-05T04:27:01.623Z,68.78
2023-03-05T04:32:04.873Z,68.92
2023-03-05T04:37:07.546Z,69.46
2023-03-05T04:42:10.570Z,69.80
2023-03-05T04:47:13.094Z,69.73
2023-03-05T04:52:16.079Z,69.99
2023-03-05T04:57:18.675Z,70.17
2023-03-05T05:02:21.244Z,70.50
2023-03-05T05:07:23.863Z,71.13
2023-03-05T05:12:29.885Z,71.41
2023-03-05T05:17:33.002Z,71.70
2023-03-05T05:22:35.735Z,72.32
2023-03-05T05:27:40.045Z,72.50
2023-03-05T05:32:42.770Z,72.67
2023-03-05T05:37:45.515Z,73.18
2023-03-05T05:42:48.147Z,73.11
2023-03-05T05:47:50.722Z,73.72
2023-03-05T05:52:53.274Z,73.66
2023-03-05T05:57:55.869Z,73.52
2023-03-05T06:02:58.485Z,73.17
2023-03-05T06:08:01.317Z,73.00
2023-03-05T06:13:04.202Z,73.02
2023-03-05T06:18:06.794Z,73.26
2023-03-05T06:23:09.398Z,73.82
2023-03-05T06:28:12.048Z,74.08
2023-03-05T06:33:14.639Z,73.95
2023-03-05T06:38:17.203Z,74.27
2023-03-05T06:43:19.875Z,74.10
2023-03-05T06:48:22.500Z,73.98
2023-03-05T06:53:26.213Z,73.49
2023-03-05T06:58:28.819Z,72.60
2023-03-05T07:03:31.365Z,71.99
2023-03-05T07:08:34.230Z,71.01
2023-03-05T07:13:36.810Z,69.91
2023-03-05T07:18:39.464Z,69.27
2023-03-05T07:23:42.045Z,68.55
2023-03-05T07:28:44.719Z,67.16
2023-03-05T07:33:49.003Z,66.34
2023-03-05T07:38:51.593Z,64.68
2023-03-05T07:43:55.665Z,63.50
2023-03-05T07:48:58.600Z,61.61
2023-03-05T07:54:01.296Z,60.81
2023-03-05T07:59:13.573Z,60.03
2023-03-05T08:04:16.403Z,59.08
2023-03-05T08:09:19.860Z,57.15
2023-03-05T08:14:22.907Z,57.60
2023-03-05T08:19:25.492Z,56.69
2023-03-05T08:24:29.831Z,56.33
2023-03-05T08:29:32.514Z,56.87
2023-03-05T08:34:35.100Z,57.46
2023-03-05T08:39:37.647Z,57.72
2023-03-05T08:44:40.279Z,57.01
2023-03-05T08:49:42.849Z,56.89
2023-03-05T08:54:45.437Z,56.50
2023-03-05T08:59:48.272Z,55.90
2023-03-05T09:04:50.869Z,55.53
2023-03-05T09:09:53.444Z,55.94
2023-03-05T09:14:56.642Z,55.44
2023-03-05T09:19:59.372Z,55.77
2023-03-05T09:25:02.001Z,56.24
2023-03-05T09:30:06.450Z,55.65
2023-03-05T09:35:09.764Z,54.94
2023-03-05T09:40:17.929Z,54.39
2023-03-05T09:45:27.527Z,53.13
2023-03-05T09:50:39.003Z,53.09
2023-03-05T09:55:46.404Z,51.87
2023-03-05T10:00:54.486Z,51.48
2023-03-05T10:06:17.321Z,51.12
2023-03-05T10:11:41.558Z,51.13
2023-03-05T10:17:01.417Z,51.14
2023-03-05T10:22:36.121Z,49.26
2023-03-05T10:27:56.910Z,48.70
2023-03-05T10:33:33.252Z,48.76
2023-03-05T10:38:54.674Z,46.45
2023-03-05T10:44:03.613Z,45.96
2023-03-05T10:49:28.540Z,45.45
2023-03-05T10:54:33.954Z,47.11
2023-03-05T10:59:36.517Z,47.15
2023-03-05T11:04:40.475Z,47.14
2023-03-05T11:10:04.722Z,47.66
2023-03-05T11:15:10.342Z,47.68
2023-03-05T11:20:36.632Z,46.32
2023-03-05T11:25:55.466Z,45.57
2023-03-05T11:31:02.853Z,45.15
2023-03-05T11:36:23.855Z,44.64
2023-03-05T11:41:44.888Z,44.69
2023-03-05T11:46:52.569Z,44.65
2023-03-05T11:52:08.543Z,44.94
2023-03-05T11:57:15.162Z,45.26
2023-03-05T12:02:22.087Z,46.77
2023-03-05T12:07:48.007Z,51.96
2023-03-05T12:13:19.217Z,56.19
2023-03-05T12:18:36.649Z,58.11
2023-03-05T12:23:59.069Z,58.96
2023-03-05T12:29:01.664Z,59.68
2023-03-05T12:34:38.195Z,60.40
2023-03-05T12:39:45.462Z,59.60
2023-03-05T12:45:19.122Z,58.36
2023-03-05T12:50:28.032Z,56.40
2023-03-05T12:55:48.456Z,55.41
2023-03-05T13:01:15.092Z,54.96
2023-03-05T13:06:34.845Z,55.06
2023-03-05T13:11:39.203Z,53.10
2023-03-05T13:16:41.910Z,52.81
2023-03-05T13:21:44.868Z,50.03
2023-03-05T13:26:47.468Z,48.79
2023-03-05T13:32:00.362Z,49.36
2023-03-05T13:37:14.590Z,49.84
2023-03-05T13:42:20.132Z,48.43
2023-03-05T13:47:24.559Z,47.53
2023-03-05T13:52:36.523Z,47.22
2023-03-05T13:57:40.692Z,46.86
2023-03-05T14:02:44.147Z,47.28
2023-03-05T14:07:49.978Z,46.47
2023-03-05T14:12:52.856Z,46.77
2023-03-05T14:18:19.833Z,47.22
2023-03-05T14:23:37.303Z,47.62
2023-03-05T14:28:40.549Z,46.75
2023-03-05T14:33:44.189Z,46.47
2023-03-05T14:38:46.816Z,45.94
2023-03-05T14:43:49.423Z,46.93
2023-03-05T14:48:52.237Z,47.00
2023-03-05T14:53:55.796Z,46.60
2023-03-05T14:58:58.453Z,47.25
2023-03-05T15:04:01.056Z,48.01
2023-03-05T15:09:05.836Z,48.30
2023-03-05T15:14:10.303Z,49.06
2023-03-05T15:19:13.591Z,49.31
2023-03-05T15:24:16.369Z,48.96
2023-03-05T15:29:19.031Z,48.78
2023-03-05T15:34:21.620Z,47.89
2023-03-05T15:39:27.171Z,47.99
2023-03-05T15:44:30.288Z,48.21
2023-03-05T15:49:33.219Z,44.47
2023-03-05T15:54:36.946Z,46.65
2023-03-05T15:59:39.605Z,50.12
2023-03-05T16:04:42.257Z,52.54
2023-03-05T16:09:49.493Z,54.27
2023-03-05T16:14:52.416Z,56.53
2023-03-05T16:19:55.907Z,58.79
2023-03-05T16:25:01.155Z,60.55
2023-03-05T16:30:04.940Z,61.57
2023-03-05T16:35:11.778Z,62.27
2023-03-05T16:40:17.232Z,63.96
2023-03-05T16:45:19.933Z,65.05
2023-03-05T16:50:22.609Z,66.25
2023-03-05T16:55:25.741Z,67.05
2023-03-05T17:00:29.345Z,68.00
2023-03-05T17:05:35.046Z,68.58
2023-03-05T17:10:37.714Z,69.50
2023-03-05T17:15:40.501Z,70.39
2023-03-05T17:20:53.148Z,70.97
2023-03-05T17:26:10.035Z,71.24
2023-03-05T17:31:27.467Z,72.17
2023-03-05T17:36:44.102Z,73.28
2023-03-05T17:41:48.476Z,73.53
2023-03-05T17:46:51.800Z,73.97
2023-03-05T17:51:54.504Z,74.38
2023-03-05T17:56:57.925Z,74.54
2023-03-05T18:02:00.885Z,74.70
2023-03-05T18:07:03.952Z,75.22
2023-03-05T18:12:06.666Z,74.87
2023-03-05T18:17:09.262Z,74.76
2023-03-05T18:22:13.097Z,75.73
2023-03-05T18:27:15.922Z,75.64
2023-03-05T18:32:18.956Z,75.96
2023-03-05T18:37:21.888Z,77.26
2023-03-05T18:42:24.536Z,77.74
2023-03-05T18:47:28.015Z,77.64
2023-03-05T18:52:30.607Z,78.02
2023-03-05T18:57:33.466Z,78.40
2023-03-05T19:02:36.118Z,78.73
2023-03-05T19:07:39.307Z,78.80
2023-03-05T19:13:02.363Z,78.61
2023-03-05T19:18:04.970Z,78.73
2023-03-05T19:23:08.079Z,79.11
2023-03-05T19:28:10.811Z,79.02
2023-03-05T19:33:13.588Z,79.39
2023-03-05T19:38:16.689Z,79.48
2023-03-05T19:43:19.269Z,79.47
2023-03-05T19:48:22.007Z,79.75
2023-03-05T19:53:24.625Z,79.75
2023-03-05T19:58:27.182Z,79.91
2023-03-05T20:03:29.818Z,80.26
2023-03-05T20:08:33.300Z,80.61
2023-03-05T20:13:35.881Z,81.00
2023-03-05T20:18:38.455Z,80.77
2023-03-05T20:23:41.829Z,81.02
2023-03-05T20:28:44.559Z,81.06
2023-03-05T20:33:48.209Z,81.17
2023-03-05T20:38:50.799Z,81.37
2023-03-05T20:43:53.422Z,81.70
2023-03-05T20:48:59.102Z,81.83
2023-03-05T20:54:11.367Z,81.89
2023-03-05T20:59:14.242Z,82.30
2023-03-05T21:04:17.063Z,82.33
2023-03-05T21:09:19.703Z,82.41
2023-03-05T21:14:22.431Z,82.52
2023-03-05T21:19:25.393Z,82.40
2023-03-05T21:24:33.450Z,82.47
2023-03-05T21:29:35.995Z,82.48
2023-03-05T21:34:38.555Z,82.71
2023-03-05T21:39:41.217Z,83.04
2023-03-05T21:44:43.808Z,83.27
2023-03-05T21:49:46.395Z,83.48
2023-03-05T21:54:49.104Z,83.85
2023-03-05T21:59:51.772Z,83.95
2023-03-05T22:04:54.465Z,83.88
2023-03-05T22:09:57.790Z,84.04
2023-03-05T22:15:00.350Z,84.08
2023-03-05T22:20:04.845Z,84.28
2023-03-05T22:25:09.055Z,84.16
2023-03-05T22:30:13.065Z,84.17
2023-03-05T22:35:15.906Z,83.82
2023-03-05T22:40:20.930Z,83.68
2023-03-05T22:45:23.529Z,83.65
2023-03-05T22:50:26.139Z,83.47
2023-03-05T22:55:28.821Z,83.31
2023-03-05T23:00:31.937Z,83.42
2023-03-05T23:05:35.485Z,83.44
2023-03-05T23:10:39.092Z,83.44
2023-03-05T23:15:44.442Z,83.58
2023-03-05T23:20:56.311Z,83.81
2023-03-05T23:26:01.219Z,83.71
2023-03-05T23:31:04.228Z,83.77
2023-03-05T23:36:06.937Z,83.83
2023-03-05T23:41:09.544Z,83.72
2023-03-05T23:46:12.495Z,83.68
2023-03-05T23:51:15.179Z,83.62
2023-03-05T23:56:17.803Z,83.64
